sensor_id;sensor_type;location;lat;lon;timestamp;P1;durP1;ratioP1;P2;durP2;ratioP2
62121;SDS011;48108;47.532;19.084;2023-08-24T03:59:34;10.40;;;6.97;;
62121;SDS011;48108;47.532;19.084;2023-08-24T04:02:38;9.48;;;7.10;;
62121;SDS011;48108;47.532;19.084;2023-08-24T04:05:41;8.73;;;7.07;;
62121;SDS011;48108;47.532;19.084;2023-08-24T04:08:45;10.98;;;6.50;;
62121;SDS011;48108;47.532;19.084;2023-08-24T04:11:47;8.73;;;6.78;;
62121;SDS011;48108;47.532;19.084;2023-08-24T04:14:50;9.77;;;6.68;;
62121;SDS011;48108;47.532;19.084;2023-08-24T04:17:55;10.43;;;7.05;;
62121;SDS011;48108;47.532;19.084;2023-08-24T04:20:59;10.20;;;7.72;;
62121;SDS011;48108;47.532;19.084;2023-08-24T04:24:02;10.15;;;7.30;;
62121;SDS011;48108;47.532;19.084;2023-08-24T04:27:05;11.18;;;6.70;;
62121;SDS011;48108;47.532;19.084;2023-08-24T04:30:09;11.05;;;7.40;;
62121;SDS011;48108;47.532;19.084;2023-08-24T04:33:14;10.77;;;7.03;;
62121;SDS011;48108;47.532;19.084;2023-08-24T04:36:17;9.82;;;7.18;;
62121;SDS011;48108;47.532;19.084;2023-08-24T04:39:20;11.93;;;7.25;;
62121;SDS011;48108;47.532;19.084;2023-08-24T04:42:23;11.18;;;7.72;;
62121;SDS011;48108;47.532;19.084;2023-08-24T04:45:25;11.70;;;7.05;;
62121;SDS011;48108;47.532;19.084;2023-08-24T04:48:28;10.02;;;6.97;;
62121;SDS011;48108;47.532;19.084;2023-08-24T04:51:36;10.32;;;6.82;;
62121;SDS011;48108;47.532;19.084;2023-08-24T04:54:39;8.65;;;6.43;;
62121;SDS011;48108;47.532;19.084;2023-08-24T04:57:42;11.38;;;6.90;;
62121;SDS011;48108;47.532;19.084;2023-08-24T05:00:45;9.73;;;6.60;;
62121;SDS011;48108;47.532;19.084;2023-08-24T05:03:48;9.00;;;6.43;;
62121;SDS011;48108;47.532;19.084;2023-08-24T05:06:51;11.10;;;6.57;;
62121;SDS011;48108;47.532;19.084;2023-08-24T05:09:54;8.93;;;6.50;;
62121;SDS011;48108;47.532;19.084;2023-08-24T05:12:57;9.73;;;7.00;;
62121;SDS011;48108;47.532;19.084;2023-08-24T05:15:59;12.37;;;6.65;;
62121;SDS011;48108;47.532;19.084;2023-08-24T05:19:02;8.82;;;6.35;;
62121;SDS011;48108;47.532;19.084;2023-08-24T05:22:05;10.45;;;6.37;;
62121;SDS011;48108;47.532;19.084;2023-08-24T05:25:08;9.27;;;6.40;;
62121;SDS011;48108;47.532;19.084;2023-08-24T05:28:11;12.02;;;6.65;;
62121;SDS011;48108;47.532;19.084;2023-08-24T05:31:14;11.20;;;7.05;;
62121;SDS011;48108;47.532;19.084;2023-08-24T05:34:17;7.82;;;6.03;;
62121;SDS011;48108;47.532;19.084;2023-08-24T05:37:20;9.77;;;6.43;;
62121;SDS011;48108;47.532;19.084;2023-08-24T05:40:22;10.45;;;6.20;;
62121;SDS011;48108;47.532;19.084;2023-08-24T05:43:25;7.90;;;6.25;;
62121;SDS011;48108;47.532;19.084;2023-08-24T05:46:28;8.25;;;6.20;;
62121;SDS011;48108;47.532;19.084;2023-08-24T05:49:32;8.95;;;6.85;;
62121;SDS011;48108;47.532;19.084;2023-08-24T05:52:34;10.75;;;6.53;;
62121;SDS011;48108;47.532;19.084;2023-08-24T05:55:38;10.73;;;6.80;;
62121;SDS011;48108;47.532;19.084;2023-08-24T05:58:41;11.52;;;6.85;;
62121;SDS011;48108;47.532;19.084;2023-08-24T06:01:44;12.27;;;6.93;;
62121;SDS011;48108;47.532;19.084;2023-08-24T06:04:47;8.93;;;6.25;;
62121;SDS011;48108;47.532;19.084;2023-08-24T06:07:49;9.18;;;6.82;;
62121;SDS011;48108;47.532;19.084;2023-08-24T06:10:53;9.35;;;6.43;;
62121;SDS011;48108;47.532;19.084;2023-08-24T06:13:56;9.63;;;6.65;;
62121;SDS011;48108;47.532;19.084;2023-08-24T06:16:59;8.55;;;6.03;;
62121;SDS011;48108;47.532;19.084;2023-08-24T06:20:04;9.27;;;6.20;;
62121;SDS011;48108;47.532;19.084;2023-08-24T06:23:08;8.70;;;6.70;;
62121;SDS011;48108;47.532;19.084;2023-08-24T06:26:11;11.10;;;7.03;;
62121;SDS011;48108;47.532;19.084;2023-08-24T06:29:14;12.90;;;6.57;;
62121;SDS011;48108;47.532;19.084;2023-08-24T06:32:16;12.35;;;7.30;;
62121;SDS011;48108;47.532;19.084;2023-08-24T06:35:20;9.82;;;6.62;;
62121;SDS011;48108;47.532;19.084;2023-08-24T06:38:22;10.68;;;6.90;;
62121;SDS011;48108;47.532;19.084;2023-08-24T06:41:26;10.98;;;7.22;;
62121;SDS011;48108;47.532;19.084;2023-08-24T06:44:28;9.18;;;6.90;;
62121;SDS011;48108;47.532;19.084;2023-08-24T06:47:31;10.02;;;6.65;;
62121;SDS011;48108;47.532;19.084;2023-08-24T06:50:34;12.85;;;7.00;;
62121;SDS011;48108;47.532;19.084;2023-08-24T06:53:39;8.13;;;6.10;;
62121;SDS011;48108;47.532;19.084;2023-08-24T06:56:41;9.45;;;6.07;;
62121;SDS011;48108;47.532;19.084;2023-08-24T06:59:46;10.45;;;6.05;;
62121;SDS011;48108;47.532;19.084;2023-08-24T07:02:49;9.65;;;6.28;;
62121;SDS011;48108;47.532;19.084;2023-08-24T07:05:52;11.15;;;5.97;;
62121;SDS011;48108;47.532;19.084;2023-08-24T07:08:55;8.00;;;5.97;;
62121;SDS011;48108;47.532;19.084;2023-08-24T07:11:58;11.18;;;5.93;;
62121;SDS011;48108;47.532;19.084;2023-08-24T07:15:01;9.48;;;5.80;;
62121;SDS011;48108;47.532;19.084;2023-08-24T07:18:04;7.78;;;5.97;;
62121;SDS011;48108;47.532;19.084;2023-08-24T07:21:08;8.93;;;6.12;;
62121;SDS011;48108;47.532;19.084;2023-08-24T07:24:11;8.80;;;6.15;;
62121;SDS011;48108;47.532;19.084;2023-08-24T07:27:13;7.75;;;5.95;;
62121;SDS011;48108;47.532;19.084;2023-08-24T07:30:16;7.37;;;5.45;;
62121;SDS011;48108;47.532;19.084;2023-08-24T07:33:34;10.38;;;6.40;;
62121;SDS011;48108;47.532;19.084;2023-08-24T07:36:37;11.40;;;6.12;;
62121;SDS011;48108;47.532;19.084;2023-08-24T07:39:40;7.40;;;5.78;;
62121;SDS011;48108;47.532;19.084;2023-08-24T07:42:43;9.27;;;5.90;;
62121;SDS011;48108;47.532;19.084;2023-08-24T07:45:57;8.60;;;5.80;;
62121;SDS011;48108;47.532;19.084;2023-08-24T07:49:00;11.75;;;5.93;;
62121;SDS011;48108;47.532;19.084;2023-08-24T07:52:02;9.18;;;6.00;;
62121;SDS011;48108;47.532;19.084;2023-08-24T07:55:06;8.80;;;5.80;;
62121;SDS011;48108;47.532;19.084;2023-08-24T07:58:09;9.38;;;5.75;;
62121;SDS011;48108;47.532;19.084;2023-08-24T08:01:12;9.45;;;5.50;;
62121;SDS011;48108;47.532;19.084;2023-08-24T08:04:15;8.80;;;5.60;;
62121;SDS011;48108;47.532;19.084;2023-08-24T08:07:18;8.55;;;5.37;;
62121;SDS011;48108;47.532;19.084;2023-08-24T08:10:21;9.20;;;4.80;;
62121;SDS011;48108;47.532;19.084;2023-08-24T08:13:24;10.88;;;4.93;;
62121;SDS011;48108;47.532;19.084;2023-08-24T08:16:27;8.60;;;4.28;;
62121;SDS011;48108;47.532;19.084;2023-08-24T08:19:30;9.25;;;5.18;;
62121;SDS011;48108;47.532;19.084;2023-08-24T08:22:33;5.65;;;4.70;;
62121;SDS011;48108;47.532;19.084;2023-08-24T08:25:40;8.63;;;4.80;;
62121;SDS011;48108;47.532;19.084;2023-08-24T08:28:45;6.07;;;4.28;;
62121;SDS011;48108;47.532;19.084;2023-08-24T08:31:47;5.82;;;4.60;;
62121;SDS011;48108;47.532;19.084;2023-08-24T08:34:51;7.45;;;4.57;;
62121;SDS011;48108;47.532;19.084;2023-08-24T08:37:53;5.30;;;4.10;;
62121;SDS011;48108;47.532;19.084;2023-08-24T08:41:04;6.32;;;4.15;;
62121;SDS011;48108;47.532;19.084;2023-08-24T08:44:07;6.37;;;4.50;;
62121;SDS011;48108;47.532;19.084;2023-08-24T08:47:14;7.12;;;4.70;;
62121;SDS011;48108;47.532;19.084;2023-08-24T08:50:17;6.22;;;4.53;;
62121;SDS011;48108;47.532;19.084;2023-08-24T08:53:21;5.25;;;4.40;;
62121;SDS011;48108;47.532;19.084;2023-08-24T08:56:24;7.75;;;4.12;;
62121;SDS011;48108;47.532;19.084;2023-08-24T08:59:27;4.97;;;4.05;;
62121;SDS011;48108;47.532;19.084;2023-08-24T09:02:33;5.87;;;4.55;;
62121;SDS011;48108;47.532;19.084;2023-08-24T09:05:37;7.00;;;4.43;;
62121;SDS011;48108;47.532;19.084;2023-08-24T09:08:40;5.25;;;4.53;;
62121;SDS011;48108;47.532;19.084;2023-08-24T09:11:43;6.47;;;4.30;;
62121;SDS011;48108;47.532;19.084;2023-08-24T09:14:49;7.60;;;4.68;;
62121;SDS011;48108;47.532;19.084;2023-08-24T09:17:52;7.20;;;4.60;;
62121;SDS011;48108;47.532;19.084;2023-08-24T09:20:57;5.55;;;4.05;;
62121;SDS011;48108;47.532;19.084;2023-08-24T09:24:00;8.60;;;4.50;;
62121;SDS011;48108;47.532;19.084;2023-08-24T09:27:15;5.45;;;4.20;;
62121;SDS011;48108;47.532;19.084;2023-08-24T09:30:19;7.28;;;4.55;;
62121;SDS011;48108;47.532;19.084;2023-08-24T09:33:22;5.65;;;4.50;;
62121;SDS011;48108;47.532;19.084;2023-08-24T09:36:30;5.60;;;4.30;;
62121;SDS011;48108;47.532;19.084;2023-08-24T09:39:34;5.68;;;4.80;;
62121;SDS011;48108;47.532;19.084;2023-08-24T09:42:41;4.53;;;3.85;;
62121;SDS011;48108;47.532;19.084;2023-08-24T09:45:54;6.65;;;4.18;;
62121;SDS011;48108;47.532;19.084;2023-08-24T09:48:58;6.28;;;4.07;;
62121;SDS011;48108;47.532;19.084;2023-08-24T09:52:02;6.45;;;4.10;;
62121;SDS011;48108;47.532;19.084;2023-08-24T09:55:09;4.37;;;3.60;;
62121;SDS011;48108;47.532;19.084;2023-08-24T09:58:14;4.50;;;3.45;;
62121;SDS011;48108;47.532;19.084;2023-08-24T10:01:18;4.78;;;3.62;;
62121;SDS011;48108;47.532;19.084;2023-08-24T10:04:23;6.62;;;3.85;;
62121;SDS011;48108;47.532;19.084;2023-08-24T10:07:27;7.50;;;3.85;;
62121;SDS011;48108;47.532;19.084;2023-08-24T10:10:30;6.70;;;4.15;;
62121;SDS011;48108;47.532;19.084;2023-08-24T10:17:03;7.97;;;3.95;;
62121;SDS011;48108;47.532;19.084;2023-08-24T10:20:06;5.37;;;4.43;;
62121;SDS011;48108;47.532;19.084;2023-08-24T10:23:12;4.75;;;3.55;;
62121;SDS011;48108;47.532;19.084;2023-08-24T10:26:17;5.47;;;3.62;;
62121;SDS011;48108;47.532;19.084;2023-08-24T10:29:22;3.62;;;3.33;;
62121;SDS011;48108;47.532;19.084;2023-08-24T10:32:26;4.07;;;3.60;;
62121;SDS011;48108;47.532;19.084;2023-08-24T10:35:30;3.85;;;3.37;;
62121;SDS011;48108;47.532;19.084;2023-08-24T10:38:34;3.50;;;3.20;;
62121;SDS011;48108;47.532;19.084;2023-08-24T10:44:50;3.62;;;3.30;;
62121;SDS011;48108;47.532;19.084;2023-08-24T10:47:53;4.40;;;3.58;;
62121;SDS011;48108;47.532;19.084;2023-08-24T10:54:30;5.12;;;3.50;;
62121;SDS011;48108;47.532;19.084;2023-08-24T10:57:38;4.68;;;3.33;;
62121;SDS011;48108;47.532;19.084;2023-08-24T11:00:48;4.20;;;3.30;;
62121;SDS011;48108;47.532;19.084;2023-08-24T11:03:55;3.55;;;3.15;;
62121;SDS011;48108;47.532;19.084;2023-08-24T11:06:59;4.00;;;3.60;;
62121;SDS011;48108;47.532;19.084;2023-08-24T11:10:11;5.78;;;3.28;;
62121;SDS011;48108;47.532;19.084;2023-08-24T11:13:16;5.50;;;3.95;;
62121;SDS011;48108;47.532;19.084;2023-08-24T11:16:43;3.58;;;3.28;;
62121;SDS011;48108;47.532;19.084;2023-08-24T11:19:52;3.83;;;3.30;;
62121;SDS011;48108;47.532;19.084;2023-08-24T11:22:56;7.90;;;3.62;;
62121;SDS011;48108;47.532;19.084;2023-08-24T11:26:00;3.78;;;3.33;;
62121;SDS011;48108;47.532;19.084;2023-08-24T11:29:06;3.40;;;3.10;;
62121;SDS011;48108;47.532;19.084;2023-08-24T11:32:09;4.15;;;3.28;;
62121;SDS011;48108;47.532;19.084;2023-08-24T11:35:13;7.45;;;3.33;;
62121;SDS011;48108;47.532;19.084;2023-08-24T11:38:16;3.95;;;2.92;;
62121;SDS011;48108;47.532;19.084;2023-08-24T11:41:19;3.60;;;3.30;;
62121;SDS011;48108;47.532;19.084;2023-08-24T11:44:24;6.18;;;3.55;;
62121;SDS011;48108;47.532;19.084;2023-08-24T11:47:31;6.18;;;3.40;;
62121;SDS011;48108;47.532;19.084;2023-08-24T11:50:34;4.28;;;2.95;;
62121;SDS011;48108;47.532;19.084;2023-08-24T11:53:40;4.65;;;2.83;;
62121;SDS011;48108;47.532;19.084;2023-08-24T11:56:44;4.95;;;2.80;;
62121;SDS011;48108;47.532;19.084;2023-08-24T11:59:49;4.37;;;3.28;;
62121;SDS011;48108;47.532;19.084;2023-08-24T12:02:52;5.00;;;2.87;;
62121;SDS011;48108;47.532;19.084;2023-08-24T12:05:59;3.97;;;2.72;;
62121;SDS011;48108;47.532;19.084;2023-08-24T12:09:06;3.72;;;3.15;;
62121;SDS011;48108;47.532;19.084;2023-08-24T12:12:16;4.00;;;3.00;;
62121;SDS011;48108;47.532;19.084;2023-08-24T12:15:21;4.30;;;3.10;;
62121;SDS011;48108;47.532;19.084;2023-08-24T12:18:24;2.75;;;2.45;;
62121;SDS011;48108;47.532;19.084;2023-08-24T12:21:27;2.90;;;2.70;;
62121;SDS011;48108;47.532;19.084;2023-08-24T12:24:32;2.75;;;2.45;;
62121;SDS011;48108;47.532;19.084;2023-08-24T12:27:34;3.30;;;2.40;;
62121;SDS011;48108;47.532;19.084;2023-08-24T12:30:50;3.00;;;2.70;;
62121;SDS011;48108;47.532;19.084;2023-08-24T12:34:14;5.35;;;2.60;;
62121;SDS011;48108;47.532;19.084;2023-08-24T12:37:17;3.12;;;2.83;;
62121;SDS011;48108;47.532;19.084;2023-08-24T12:40:20;3.87;;;2.40;;
62121;SDS011;48108;47.532;19.084;2023-08-24T12:43:25;2.75;;;2.42;;
62121;SDS011;48108;47.532;19.084;2023-08-24T12:46:28;4.57;;;2.50;;
62121;SDS011;48108;47.532;19.084;2023-08-24T12:49:31;2.72;;;2.53;;
62121;SDS011;48108;47.532;19.084;2023-08-24T12:52:34;2.80;;;2.50;;
62121;SDS011;48108;47.532;19.084;2023-08-24T12:55:39;2.20;;;2.05;;
62121;SDS011;48108;47.532;19.084;2023-08-24T12:58:44;4.20;;;2.70;;
62121;SDS011;48108;47.532;19.084;2023-08-24T13:01:47;2.55;;;2.35;;
62121;SDS011;48108;47.532;19.084;2023-08-24T13:04:50;2.90;;;2.40;;
62121;SDS011;48108;47.532;19.084;2023-08-24T13:07:53;3.55;;;2.22;;
62121;SDS011;48108;47.532;19.084;2023-08-24T13:10:57;3.00;;;2.30;;
62121;SDS011;48108;47.532;19.084;2023-08-24T13:14:00;2.80;;;2.60;;
62121;SDS011;48108;47.532;19.084;2023-08-24T13:17:03;3.00;;;2.55;;
62121;SDS011;48108;47.532;19.084;2023-08-24T13:20:06;3.30;;;2.47;;
62121;SDS011;48108;47.532;19.084;2023-08-24T13:23:10;4.03;;;2.42;;
62121;SDS011;48108;47.532;19.084;2023-08-24T13:26:17;2.92;;;2.50;;
62121;SDS011;48108;47.532;19.084;2023-08-24T13:29:23;3.90;;;2.37;;
62121;SDS011;48108;47.532;19.084;2023-08-24T13:32:26;2.72;;;2.05;;
62121;SDS011;48108;47.532;19.084;2023-08-24T13:35:29;4.97;;;2.28;;
62121;SDS011;48108;47.532;19.084;2023-08-24T13:38:32;2.55;;;2.33;;
62121;SDS011;48108;47.532;19.084;2023-08-24T13:41:35;3.00;;;2.30;;
62121;SDS011;48108;47.532;19.084;2023-08-24T13:44:38;2.83;;;2.15;;
62121;SDS011;48108;47.532;19.084;2023-08-24T13:47:41;3.50;;;2.30;;
62121;SDS011;48108;47.532;19.084;2023-08-24T13:50:50;2.78;;;2.42;;
62121;SDS011;48108;47.532;19.084;2023-08-24T13:53:54;3.03;;;2.47;;
62121;SDS011;48108;47.532;19.084;2023-08-24T13:56:57;4.40;;;2.70;;
62121;SDS011;48108;47.532;19.084;2023-08-24T14:00:03;4.25;;;2.53;;
62121;SDS011;48108;47.532;19.084;2023-08-24T14:03:13;4.18;;;2.35;;
62121;SDS011;48108;47.532;19.084;2023-08-24T14:06:16;4.65;;;2.40;;
62121;SDS011;48108;47.532;19.084;2023-08-24T14:09:19;2.97;;;2.60;;
62121;SDS011;48108;47.532;19.084;2023-08-24T14:12:22;2.58;;;2.35;;
62121;SDS011;48108;47.532;19.084;2023-08-24T14:15:24;3.55;;;2.45;;
62121;SDS011;48108;47.532;19.084;2023-08-24T14:18:27;4.53;;;2.67;;
62121;SDS011;48108;47.532;19.084;2023-08-24T14:21:30;4.00;;;2.78;;
62121;SDS011;48108;47.532;19.084;2023-08-24T14:24:37;2.80;;;2.55;;
62121;SDS011;48108;47.532;19.084;2023-08-24T14:27:40;5.55;;;2.80;;
62121;SDS011;48108;47.532;19.084;2023-08-24T14:30:52;3.33;;;2.90;;
62121;SDS011;48108;47.532;19.084;2023-08-24T14:33:55;3.80;;;3.40;;
62121;SDS011;48108;47.532;19.084;2023-08-24T14:36:58;5.53;;;2.72;;
62121;SDS011;48108;47.532;19.084;2023-08-24T14:40:01;3.20;;;2.90;;
62121;SDS011;48108;47.532;19.084;2023-08-24T14:43:06;3.33;;;3.03;;
62121;SDS011;48108;47.532;19.084;2023-08-24T14:46:09;3.45;;;2.72;;
62121;SDS011;48108;47.532;19.084;2023-08-24T14:49:12;4.00;;;3.20;;
62121;SDS011;48108;47.532;19.084;2023-08-24T14:52:20;3.37;;;3.03;;
62121;SDS011;48108;47.532;19.084;2023-08-24T14:55:23;3.53;;;2.67;;
62121;SDS011;48108;47.532;19.084;2023-08-24T14:58:26;5.50;;;2.97;;
62121;SDS011;48108;47.532;19.084;2023-08-24T15:01:29;3.47;;;3.10;;
62121;SDS011;48108;47.532;19.084;2023-08-24T15:04:32;4.30;;;3.70;;
62121;SDS011;48108;47.532;19.084;2023-08-24T15:19:08;4.10;;;3.37;;
62121;SDS011;48108;47.532;19.084;2023-08-24T15:22:12;4.20;;;3.17;;
62121;SDS011;48108;47.532;19.084;2023-08-24T15:25:14;3.95;;;2.90;;
62121;SDS011;48108;47.532;19.084;2023-08-24T15:28:17;4.65;;;3.30;;
62121;SDS011;48108;47.532;19.084;2023-08-24T15:31:20;5.03;;;3.15;;
62121;SDS011;48108;47.532;19.084;2023-08-24T15:34:23;5.07;;;3.00;;
62121;SDS011;48108;47.532;19.084;2023-08-24T15:37:26;3.10;;;2.80;;
62121;SDS011;48108;47.532;19.084;2023-08-24T15:40:29;5.32;;;3.53;;
62121;SDS011;48108;47.532;19.084;2023-08-24T15:43:33;3.05;;;2.72;;
62121;SDS011;48108;47.532;19.084;2023-08-24T15:46:37;4.47;;;3.33;;
62121;SDS011;48108;47.532;19.084;2023-08-24T15:49:40;4.47;;;3.17;;
62121;SDS011;48108;47.532;19.084;2023-08-24T15:52:43;3.92;;;3.17;;
62121;SDS011;48108;47.532;19.084;2023-08-24T15:55:45;5.65;;;3.70;;
62121;SDS011;48108;47.532;19.084;2023-08-24T15:58:48;5.05;;;2.92;;
